Robins Air Force Base
KWRB : now visible

Airfield :











YOU CAN JOIN US ON...

 
LOGIN :

Register | Disclaimer

   EN    FR    IT 

 









Legend :    VFR   Marginal VFR   IFR   Intensive IFR   Very Intensive IFR
Visi :
Ceiling :
>= 8 km
>= 3000ft
5 to 8 km
1000 to 3000 ft
1500m to 5 km
500 to 1000 ft
800 to 1500m
200 to 500 ft
< 800m
< 200 ft
Symbols :   Thunderstorms  Fog  Heavy snow  Heavy precipitations  Wind > 20 kt






- Airport Elevation : 294 ft


KWRB - Robins Air Force Base

CURRENT METAR :
  • 221456Z 05003KT 10SM OVC009 23/21 A3018 RMK AO2A CIG 007V009 CIG 007 RWY15 SLP221 T02270208 52011

EXPIRED METARs :
  • 221438Z 08004KT 10SM OVC007 22/20 A3018 RMK AO2A CIG 006 RWY15 SLP221
  • 221426Z 09004KT 10SM OVC006 21/20 A3018 RMK AO2A SLP221
  • 221356Z 05004KT 10SM OVC005 21/21 A3017 RMK AO2A SLP217 T02090207
  • 221317Z 08004KT 10SM BKN005 20/20 A3017 RMK AO2A SLP217
  • 221302Z 00000KT 10SM BKN006 20/20 A3016 RMK AO2A BKN V SCT SLP214
  • 221256Z 00000KT 10SM FEW005 SCT010 20/20 A3016 RMK AO2A SLP214 T01960196

TAF AMD TAF KWRB
Valid from the 22 at 13:00 until the 23 at 19:00 UTC


221310Z 2213/2319 VRB03KT 9999 BKN005 BKN010 QNH3010INS
BECMG 2214/2215 06010G15KT 9999 SCT010 QNH3010INS
BECMG 2218/2219 08010G15KT 9999 VCSH SCT025 BKN035 BKN080 BKN200 QNH3005INS
TEMPO 2219/2223 08015G20KT 8000 -SHRA BKN025 BKN080 BKN200
BECMG 2301/2302 VRB06KT 9999 NSW BKN025 BKN080 BKN200 QNH3008INS TX28/2221Z TN17/2312Z
KZTL FIR / North America



MET'MAP, your aeronautical weather chart ! - Copyright ORBIFLY December 2007 - Disclaimer

ORBIFLY MET'MAP TEAM :

Programming & Development : Alexandra Zaïnal
Concept & original design : Baudouin d'Aumeries
Assistance for programming : Marc-Olivier Méhu
Technical & hardware support : Manuel Goepfert

Contact : metmap@orbifly.com




SOURCES & CREDITS :

   NOAA       Earth
Advisory